createdAt,value
2017-06-05T00:00:38.943Z,2.17
2017-06-05T00:03:05.737Z,1.90
2017-06-05T00:05:32.093Z,1.93
2017-06-05T00:07:59.313Z,1.80
2017-06-05T00:10:25.814Z,2.07
2017-06-05T00:12:52.189Z,2.10
2017-06-05T00:15:18.573Z,1.93
2017-06-05T00:17:44.934Z,1.85
2017-06-05T00:20:11.302Z,2.30
2017-06-05T00:22:37.673Z,2.00
2017-06-05T00:25:04.779Z,2.75
2017-06-05T00:27:31.164Z,3.00
2017-06-05T00:29:58.237Z,2.55
2017-06-05T00:32:24.599Z,2.42
2017-06-05T00:34:50.977Z,2.30
2017-06-05T00:37:17.341Z,2.40
2017-06-05T00:39:44.421Z,2.53
2017-06-05T00:42:10.753Z,3.15
2017-06-05T00:44:37.092Z,2.10
2017-06-05T00:47:03.439Z,3.17
2017-06-05T00:49:29.780Z,2.50
2017-06-05T00:51:56.137Z,3.12
2017-06-05T00:54:23.232Z,2.90
2017-06-05T00:56:50.380Z,2.67
2017-06-05T00:59:16.784Z,2.78
2017-06-05T01:01:43.177Z,2.83
2017-06-05T01:04:09.509Z,3.33
2017-06-05T01:06:35.842Z,2.95
2017-06-05T01:09:02.272Z,3.65
2017-06-05T01:11:28.653Z,3.37
2017-06-05T01:13:55.024Z,3.30
2017-06-05T01:16:21.365Z,2.97
2017-06-05T01:18:47.787Z,2.95
2017-06-05T01:21:14.241Z,3.05
2017-06-05T01:23:40.610Z,3.80
2017-06-05T01:26:07.004Z,3.33
2017-06-05T01:28:34.099Z,3.50
2017-06-05T01:31:01.199Z,3.58
2017-06-05T01:33:27.959Z,3.45
2017-06-05T01:35:54.328Z,3.62
2017-06-05T01:38:20.681Z,3.00
2017-06-05T01:40:47.055Z,3.25
2017-06-05T01:43:13.462Z,4.10
2017-06-05T01:45:39.860Z,3.40
2017-06-05T01:48:06.216Z,3.25
2017-06-05T01:50:32.584Z,3.45
2017-06-05T01:53:00.080Z,3.45
2017-06-05T01:55:26.456Z,3.05
2017-06-05T01:57:52.811Z,3.28
2017-06-05T02:00:19.224Z,4.10
2017-06-05T02:02:45.653Z,3.12
2017-06-05T02:05:11.993Z,3.70
2017-06-05T02:07:38.333Z,3.80
2017-06-05T02:10:04.688Z,3.60
2017-06-05T02:12:31.778Z,3.20
2017-06-05T02:14:58.106Z,3.55
2017-06-05T02:17:24.438Z,3.60
2017-06-05T02:19:50.772Z,4.30
2017-06-05T02:22:17.188Z,4.10
2017-06-05T02:24:43.622Z,3.87
2017-06-05T02:27:09.965Z,3.60
2017-06-05T02:29:36.593Z,3.78
2017-06-05T02:32:03.168Z,4.25
2017-06-05T02:34:29.760Z,3.58
2017-06-05T02:36:56.344Z,3.87
2017-06-05T02:39:22.918Z,4.15
2017-06-05T02:41:49.417Z,3.50
2017-06-05T02:44:16.055Z,4.22
2017-06-05T02:46:42.545Z,3.85
2017-06-05T02:49:09.107Z,3.70
2017-06-05T02:51:35.552Z,3.83
2017-06-05T02:54:02.861Z,4.10
2017-06-05T02:56:29.373Z,4.20
2017-06-05T02:58:55.937Z,3.75
2017-06-05T03:01:22.533Z,3.80
2017-06-05T03:03:49.105Z,4.05
2017-06-05T03:06:16.423Z,4.22
2017-06-05T03:08:43.029Z,4.12
2017-06-05T03:11:09.621Z,3.70
2017-06-05T03:13:36.220Z,3.75
2017-06-05T03:16:03.207Z,3.90
2017-06-05T03:18:29.828Z,4.00
2017-06-05T03:21:11.376Z,4.70
2017-06-05T03:23:37.722Z,3.83
2017-06-05T03:26:04.061Z,4.00
2017-06-05T03:28:30.441Z,3.80
2017-06-05T03:30:56.803Z,3.33
2017-06-05T03:33:23.282Z,3.80
2017-06-05T03:35:50.474Z,3.70
2017-06-05T03:38:16.884Z,3.53
2017-06-05T03:40:43.283Z,4.45
2017-06-05T03:43:09.649Z,4.10
2017-06-05T03:45:36.299Z,4.12
2017-06-05T03:48:03.324Z,4.30
2017-06-05T03:50:29.933Z,4.00
2017-06-05T03:52:57.288Z,4.28
2017-06-05T03:55:23.885Z,4.47
2017-06-05T03:57:50.496Z,4.40
2017-06-05T04:00:17.100Z,3.67
2017-06-05T04:02:43.737Z,4.10
2017-06-05T04:05:10.300Z,4.60
2017-06-05T04:07:36.916Z,4.32
2017-06-05T04:10:04.718Z,4.35
2017-06-05T04:12:31.219Z,4.87
2017-06-05T04:14:57.809Z,4.30
2017-06-05T04:17:24.700Z,4.15
2017-06-05T04:19:51.347Z,3.90
2017-06-05T04:22:17.933Z,4.50
2017-06-05T04:24:44.445Z,4.22
2017-06-05T04:27:11.013Z,4.40
2017-06-05T04:29:38.324Z,3.95
2017-06-05T04:32:04.931Z,3.85
2017-06-05T04:34:31.508Z,4.55
2017-06-05T04:36:58.246Z,4.28
2017-06-05T04:39:24.831Z,3.80
2017-06-05T04:41:52.471Z,3.70
2017-06-05T04:44:19.068Z,4.07
2017-06-05T04:46:45.636Z,3.92
2017-06-05T04:49:12.214Z,3.60
2017-06-05T04:51:38.712Z,3.75
2017-06-05T04:54:05.336Z,4.20
2017-06-05T04:56:31.983Z,3.45
2017-06-05T04:58:58.467Z,3.25
2017-06-05T05:01:25.025Z,4.00
2017-06-05T05:03:52.361Z,3.83
2017-06-05T05:06:25.910Z,3.40
2017-06-05T05:08:53.018Z,2.97
2017-06-05T05:11:20.099Z,3.78
2017-06-05T05:13:46.457Z,3.30
2017-06-05T05:16:12.807Z,3.10
2017-06-05T05:18:39.171Z,3.25
2017-06-05T05:21:05.516Z,2.85
2017-06-05T05:23:31.895Z,2.50
2017-06-05T05:25:58.236Z,2.60
2017-06-05T05:28:24.597Z,2.35
2017-06-05T05:30:51.760Z,2.78
2017-06-05T05:33:18.398Z,2.65
2017-06-05T05:35:44.979Z,2.78
2017-06-05T05:38:11.587Z,2.58
2017-06-05T05:40:38.163Z,2.53
2017-06-05T05:43:04.813Z,3.00
2017-06-05T05:45:31.417Z,2.72
2017-06-05T05:47:58.004Z,2.65
2017-06-05T05:50:24.632Z,3.05
2017-06-05T05:52:51.249Z,3.20
2017-06-05T05:55:18.521Z,3.15
2017-06-05T05:57:45.103Z,3.03
2017-06-05T06:00:11.750Z,2.67
2017-06-05T06:02:38.357Z,2.87
2017-06-05T06:05:05.008Z,3.08
2017-06-05T06:07:31.605Z,2.73
2017-06-05T06:10:00.237Z,3.00
2017-06-05T06:12:26.824Z,2.83
2017-06-05T06:14:53.436Z,3.10
2017-06-05T06:17:20.780Z,3.10
2017-06-05T06:19:47.781Z,3.13
2017-06-05T06:22:14.369Z,2.60
2017-06-05T06:24:40.961Z,2.92
2017-06-05T06:27:08.335Z,3.03
2017-06-05T06:29:34.962Z,2.50
2017-06-05T06:32:01.368Z,2.60
2017-06-05T06:34:28.020Z,2.57
2017-06-05T06:36:55.356Z,2.67
2017-06-05T06:39:21.850Z,2.20
2017-06-05T06:41:48.430Z,2.73
2017-06-05T06:44:15.015Z,2.67
2017-06-05T06:46:41.488Z,2.63
2017-06-05T06:49:08.493Z,2.47
2017-06-05T06:51:35.136Z,1.97
2017-06-05T06:54:02.504Z,2.50
2017-06-05T06:56:29.128Z,1.93
2017-06-05T06:58:55.719Z,2.27
2017-06-05T07:01:23.462Z,2.50
2017-06-05T07:03:50.764Z,2.37
2017-06-05T07:06:17.494Z,2.77
2017-06-05T07:08:44.108Z,2.50
2017-06-05T07:11:10.604Z,2.13
2017-06-05T07:13:37.941Z,2.50
2017-06-05T07:16:06.121Z,2.37
2017-06-05T07:18:39.589Z,2.03
2017-06-05T07:21:06.221Z,1.97
2017-06-05T07:23:32.721Z,2.00
2017-06-05T07:26:00.122Z,2.37
2017-06-05T07:28:26.707Z,2.13
2017-06-05T07:30:53.160Z,1.63
2017-06-05T07:33:19.782Z,2.10
2017-06-05T07:35:46.209Z,2.10
2017-06-05T07:38:12.816Z,1.93
2017-06-05T07:40:39.420Z,1.97
2017-06-05T07:43:05.944Z,2.00
2017-06-05T07:45:32.492Z,1.60
2017-06-05T07:47:59.072Z,1.83
2017-06-05T07:50:25.671Z,1.70
2017-06-05T07:52:52.319Z,1.30
2017-06-05T07:55:18.820Z,2.03
2017-06-05T07:57:45.420Z,1.57
2017-06-05T08:00:12.079Z,1.60
2017-06-05T08:02:39.343Z,1.60
2017-06-05T08:05:06.686Z,1.40
2017-06-05T08:07:33.224Z,1.77
2017-06-05T08:10:00.552Z,1.50
2017-06-05T08:12:27.142Z,1.60
2017-06-05T08:14:53.725Z,1.50
2017-06-05T08:17:20.282Z,1.53
2017-06-05T08:19:46.720Z,1.40
2017-06-05T08:22:13.385Z,1.27
2017-06-05T08:24:39.953Z,1.40
2017-06-05T08:27:06.561Z,1.70
2017-06-05T08:29:35.953Z,1.37
2017-06-05T08:32:06.247Z,1.87
2017-06-05T08:34:39.308Z,1.70
2017-06-05T08:37:06.461Z,1.70
2017-06-05T08:39:34.210Z,1.50
2017-06-05T08:42:01.989Z,1.40
2017-06-05T08:44:29.166Z,1.33
2017-06-05T08:46:58.613Z,1.90
2017-06-05T08:49:25.682Z,1.80
2017-06-05T08:51:52.256Z,2.17
2017-06-05T08:54:21.276Z,1.97
2017-06-05T08:56:49.247Z,1.83
2017-06-05T08:59:18.485Z,1.70
2017-06-05T09:01:45.661Z,1.53
2017-06-05T09:04:12.000Z,1.50
2017-06-05T09:06:38.446Z,1.83
2017-06-05T09:09:04.773Z,1.87
2017-06-05T09:11:31.148Z,1.53
2017-06-05T09:13:57.517Z,1.60
2017-06-05T09:16:23.917Z,2.07
2017-06-05T09:18:50.257Z,2.10
2017-06-05T09:21:16.981Z,1.67
2017-06-05T09:23:50.504Z,1.60
2017-06-05T09:26:18.812Z,2.43
2017-06-05T09:28:45.389Z,1.80
2017-06-05T09:31:12.089Z,1.93
2017-06-05T09:33:38.665Z,1.80
2017-06-05T09:36:06.495Z,1.80
2017-06-05T09:38:33.901Z,2.10
2017-06-05T09:41:00.780Z,2.00
2017-06-05T09:43:27.850Z,2.07
2017-06-05T09:45:54.734Z,1.90
2017-06-05T09:48:21.695Z,1.83
2017-06-05T09:50:48.404Z,2.47
2017-06-05T09:53:14.990Z,1.90
2017-06-05T09:55:42.230Z,2.03
2017-06-05T09:58:14.639Z,1.70
2017-06-05T10:00:41.208Z,1.60
2017-06-05T10:03:07.857Z,1.87
2017-06-05T10:05:34.424Z,1.70
2017-06-05T10:08:01.009Z,1.40
2017-06-05T10:10:27.592Z,1.43
2017-06-05T10:12:58.056Z,1.50
2017-06-05T10:15:24.602Z,1.30
2017-06-05T10:17:51.198Z,1.60
2017-06-05T10:20:17.805Z,1.67
2017-06-05T10:22:44.393Z,1.50
2017-06-05T10:25:11.045Z,1.63
2017-06-05T10:27:41.384Z,1.50
2017-06-05T10:30:07.977Z,1.40
2017-06-05T10:32:35.509Z,1.40
2017-06-05T10:35:02.144Z,1.50
2017-06-05T10:37:28.696Z,1.30
2017-06-05T10:39:55.300Z,1.37
2017-06-05T10:44:53.340Z,1.90
2017-06-05T10:47:19.912Z,1.30
2017-06-05T10:49:46.377Z,2.00
2017-06-05T10:52:13.013Z,1.77
2017-06-05T10:54:39.616Z,1.60
2017-06-05T10:59:38.772Z,1.70
2017-06-05T11:02:05.417Z,1.73
2017-06-05T11:04:32.728Z,2.27
2017-06-05T11:06:59.287Z,1.90
2017-06-05T11:09:25.873Z,1.57
2017-06-05T11:11:56.187Z,1.67
2017-06-05T11:14:23.510Z,1.77
2017-06-05T11:16:50.000Z,1.40
2017-06-05T11:19:16.589Z,1.43
2017-06-05T11:21:43.017Z,1.73
2017-06-05T11:24:09.660Z,1.40
2017-06-05T11:26:40.141Z,1.60
2017-06-05T11:29:06.708Z,1.80
2017-06-05T11:31:33.260Z,1.53
2017-06-05T11:33:59.733Z,1.50
2017-06-05T11:36:26.312Z,1.57
2017-06-05T11:38:52.876Z,1.50
2017-06-05T11:41:24.485Z,1.40
2017-06-05T11:43:50.841Z,1.50
2017-06-05T11:46:17.256Z,1.50
2017-06-05T11:48:43.808Z,1.63
2017-06-05T11:51:10.413Z,1.40
2017-06-05T11:53:37.008Z,1.80
2017-06-05T11:58:35.149Z,2.20
2017-06-05T12:01:02.233Z,1.60
2017-06-05T12:03:28.561Z,1.53
2017-06-05T12:05:55.152Z,1.60
2017-06-05T12:08:22.337Z,1.50
2017-06-05T12:10:48.997Z,1.30
2017-06-05T12:13:15.549Z,1.60
2017-06-05T12:15:42.136Z,1.30
2017-06-05T12:18:08.741Z,1.40
2017-06-05T12:20:35.236Z,1.17
2017-06-05T12:23:02.598Z,1.60
2017-06-05T12:25:29.249Z,1.50
2017-06-05T12:27:55.794Z,1.37
2017-06-05T12:30:22.284Z,1.50
2017-06-05T12:32:48.974Z,1.60
2017-06-05T12:35:15.994Z,1.70
2017-06-05T12:37:42.596Z,1.57
2017-06-05T12:40:09.136Z,1.83
2017-06-05T12:42:35.732Z,1.70
2017-06-05T12:47:34.154Z,1.40
2017-06-05T12:50:00.820Z,1.70
2017-06-05T12:52:27.132Z,1.50
2017-06-05T12:54:54.410Z,1.37
2017-06-05T12:57:20.969Z,1.20
2017-06-05T12:59:47.576Z,1.37
2017-06-05T13:02:14.204Z,1.40
2017-06-05T13:04:43.716Z,1.30
2017-06-05T13:07:10.247Z,1.43
2017-06-05T13:09:36.830Z,1.63
2017-06-05T13:12:03.424Z,1.67
2017-06-05T13:14:30.159Z,1.70
2017-06-05T13:16:56.741Z,1.57
2017-06-05T13:19:23.362Z,1.60
2017-06-05T13:21:49.976Z,1.80
2017-06-05T13:24:16.541Z,1.90
2017-06-05T13:26:43.873Z,1.80
2017-06-05T13:29:10.533Z,1.80
2017-06-05T13:31:37.098Z,2.10
2017-06-05T13:34:03.780Z,1.80
2017-06-05T13:36:30.365Z,2.00
2017-06-05T13:38:56.980Z,2.50
2017-06-05T13:41:23.640Z,1.73
2017-06-05T13:43:50.256Z,1.67
2017-06-05T13:46:16.827Z,1.77
2017-06-05T13:48:43.537Z,1.77
2017-06-05T13:51:09.984Z,1.53
2017-06-05T13:53:36.570Z,1.87
2017-06-05T13:56:03.064Z,1.60
2017-06-05T13:58:29.626Z,1.70
2017-06-05T14:00:56.173Z,1.53
2017-06-05T14:03:22.863Z,1.20
2017-06-05T14:05:49.592Z,1.70
2017-06-05T14:08:16.232Z,1.50
2017-06-05T14:10:42.865Z,1.30
2017-06-05T14:13:09.479Z,1.30
2017-06-05T14:15:35.956Z,1.40
2017-06-05T14:18:02.488Z,1.43
2017-06-05T14:20:29.076Z,1.50
2017-06-05T14:22:55.640Z,1.40
2017-06-05T14:25:22.217Z,1.30
2017-06-05T14:27:48.813Z,1.17
2017-06-05T14:30:15.361Z,1.10
2017-06-05T14:32:41.913Z,1.43
2017-06-05T14:35:09.216Z,1.53
2017-06-05T14:37:36.586Z,1.63
2017-06-05T14:40:03.928Z,1.10
2017-06-05T14:42:30.378Z,1.33
2017-06-05T14:44:56.980Z,1.40
2017-06-05T14:47:29.706Z,1.30
2017-06-05T14:49:56.276Z,1.57
2017-06-05T14:52:22.872Z,1.73
2017-06-05T14:54:50.169Z,1.57
2017-06-05T14:57:16.706Z,1.50
2017-06-05T14:59:43.396Z,1.47
2017-06-05T15:02:12.332Z,1.40
2017-06-05T15:04:38.956Z,1.30
2017-06-05T15:07:05.425Z,1.10
2017-06-05T15:09:32.102Z,1.50
2017-06-05T15:11:58.580Z,1.20
2017-06-05T15:14:25.184Z,1.37
2017-06-05T15:16:51.872Z,1.47
2017-06-05T15:19:18.459Z,1.43
2017-06-05T15:21:45.225Z,1.83
2017-06-05T15:24:12.564Z,1.43
2017-06-05T15:26:39.144Z,1.33
2017-06-05T15:29:06.348Z,1.57
2017-06-05T15:31:33.273Z,1.40
2017-06-05T15:33:59.826Z,1.30
2017-06-05T15:36:26.401Z,1.23
2017-06-05T15:38:52.833Z,1.33
2017-06-05T15:41:20.197Z,1.47
2017-06-05T15:43:47.476Z,1.50
2017-06-05T15:46:14.089Z,1.40
2017-06-05T15:48:40.649Z,1.10
2017-06-05T15:51:07.307Z,1.50
2017-06-05T15:53:33.900Z,1.50
2017-06-05T15:56:00.475Z,1.40
2017-06-05T15:58:27.065Z,1.53
2017-06-05T16:00:53.548Z,1.40
2017-06-05T16:03:20.148Z,1.30
2017-06-05T16:05:46.692Z,1.50
2017-06-05T16:08:13.247Z,1.40
2017-06-05T16:10:39.853Z,1.40
2017-06-05T16:13:06.428Z,1.40
2017-06-05T16:15:33.012Z,1.53
2017-06-05T16:17:59.436Z,1.27
2017-06-05T16:20:26.080Z,1.20
2017-06-05T16:22:52.652Z,1.23
2017-06-05T16:25:19.368Z,1.10
2017-06-05T16:27:46.635Z,1.43
2017-06-05T16:30:13.233Z,1.30
2017-06-05T16:32:39.740Z,1.77
2017-06-05T16:35:06.293Z,1.40
2017-06-05T16:37:32.872Z,1.20
2017-06-05T16:39:59.448Z,1.20
2017-06-05T16:42:26.029Z,1.40
2017-06-05T16:44:52.584Z,1.73
2017-06-05T16:47:19.184Z,1.63
2017-06-05T16:49:45.774Z,1.00
2017-06-05T16:52:12.213Z,1.20
2017-06-05T16:54:38.816Z,1.30
2017-06-05T16:57:05.384Z,1.27
2017-06-05T16:59:36.956Z,1.10
2017-06-05T17:02:08.352Z,1.40
2017-06-05T17:04:36.797Z,1.20
2017-06-05T17:07:03.416Z,1.10
2017-06-05T17:09:30.157Z,1.33
2017-06-05T17:11:56.757Z,1.47
2017-06-05T17:14:23.270Z,1.27
2017-06-05T17:16:50.745Z,1.13
2017-06-05T17:19:18.244Z,1.20
2017-06-05T17:21:44.805Z,1.30
2017-06-05T17:24:11.471Z,0.90
2017-06-05T17:26:37.956Z,1.20
2017-06-05T17:29:04.627Z,1.30
2017-06-05T17:31:31.218Z,1.07
2017-06-05T17:33:57.873Z,1.63
2017-06-05T17:36:24.713Z,0.97
2017-06-05T17:38:51.506Z,1.03
2017-06-05T17:41:18.004Z,1.20
2017-06-05T17:43:44.568Z,1.20
2017-06-05T17:46:11.178Z,1.20
2017-06-05T17:48:38.484Z,1.27
2017-06-05T17:51:05.011Z,1.20
2017-06-05T17:53:31.580Z,1.20
2017-06-05T17:55:58.286Z,1.20
2017-06-05T17:58:24.864Z,1.10
2017-06-05T18:00:52.053Z,1.10
2017-06-05T18:03:18.669Z,1.20
2017-06-05T18:05:45.255Z,1.00
2017-06-05T18:08:14.262Z,1.10
2017-06-05T18:10:40.996Z,1.10
2017-06-05T18:13:07.727Z,1.10
2017-06-05T18:15:34.320Z,1.10
2017-06-05T18:18:01.861Z,1.03
2017-06-05T18:20:28.297Z,1.27
2017-06-05T18:22:54.871Z,1.20
2017-06-05T18:25:21.499Z,1.10
2017-06-05T18:27:48.000Z,1.00
2017-06-05T18:30:14.602Z,1.00
2017-06-05T18:32:41.184Z,1.00
2017-06-05T18:35:07.854Z,1.10
2017-06-05T18:37:34.472Z,1.27
2017-06-05T18:40:01.090Z,1.13
2017-06-05T18:42:27.638Z,1.30
2017-06-05T18:44:54.216Z,0.90
2017-06-05T18:47:20.808Z,1.10
2017-06-05T18:49:48.456Z,1.00
2017-06-05T18:52:15.861Z,1.10
2017-06-05T18:54:42.429Z,0.90
2017-06-05T18:57:09.013Z,1.10
2017-06-05T18:59:35.676Z,0.97
2017-06-05T19:02:02.276Z,1.20
2017-06-05T19:04:28.708Z,1.03
2017-06-05T19:06:56.031Z,1.50
2017-06-05T19:09:22.495Z,1.20
2017-06-05T19:11:49.111Z,1.10
2017-06-05T19:14:15.728Z,1.60
2017-06-05T19:16:42.352Z,1.30
2017-06-05T19:19:08.916Z,1.13
2017-06-05T19:21:35.256Z,1.40
2017-06-05T19:24:01.648Z,1.37
2017-06-05T19:26:27.996Z,1.20
2017-06-05T19:28:55.164Z,1.27
2017-06-05T19:31:21.545Z,1.70
2017-06-05T19:33:47.900Z,1.50
2017-06-05T19:36:14.391Z,1.53
2017-06-05T19:38:40.836Z,1.50
2017-06-05T19:41:07.249Z,1.50
2017-06-05T19:43:34.661Z,1.60
2017-06-05T19:46:01.064Z,1.83
2017-06-05T19:48:27.440Z,1.40
2017-06-05T19:50:53.818Z,2.13
2017-06-05T19:53:20.193Z,1.60
2017-06-05T19:55:46.992Z,1.83
2017-06-05T19:58:13.547Z,1.80
2017-06-05T20:00:39.910Z,1.87
2017-06-05T20:03:06.232Z,1.43
2017-06-05T20:05:32.569Z,1.70
2017-06-05T20:07:58.892Z,1.67
2017-06-05T20:10:25.236Z,1.70
2017-06-05T20:12:51.662Z,2.03
2017-06-05T20:15:17.985Z,1.90
2017-06-05T20:17:45.072Z,1.80
2017-06-05T20:20:12.172Z,2.10
2017-06-05T20:22:38.499Z,2.10
2017-06-05T20:25:05.588Z,2.20
2017-06-05T20:27:31.917Z,2.80
2017-06-05T20:29:58.265Z,2.50
2017-06-05T20:32:24.672Z,2.27
2017-06-05T20:34:51.025Z,2.70
2017-06-05T20:37:17.404Z,2.70
2017-06-05T20:39:43.804Z,2.40
2017-06-05T20:42:10.165Z,2.80
2017-06-05T20:44:36.522Z,2.60
2017-06-05T20:47:02.902Z,2.27
2017-06-05T20:49:30.065Z,2.47
2017-06-05T20:51:56.382Z,2.03
2017-06-05T20:54:24.267Z,2.40
2017-06-05T20:56:52.977Z,2.20
2017-06-05T20:59:19.415Z,2.47
2017-06-05T21:01:45.765Z,2.20
2017-06-05T21:04:12.123Z,2.10
2017-06-05T21:06:38.481Z,2.20
2017-06-05T21:09:04.836Z,2.20
2017-06-05T21:11:31.177Z,2.27
2017-06-05T21:13:57.544Z,1.70
2017-06-05T21:16:23.904Z,2.67
2017-06-05T21:18:51.104Z,2.13
2017-06-05T21:21:17.654Z,2.23
2017-06-05T21:23:44.299Z,2.53
2017-06-05T21:26:23.114Z,2.43
2017-06-05T21:28:51.856Z,2.33
2017-06-05T21:31:18.255Z,2.20
2017-06-05T21:33:46.274Z,2.50
2017-06-05T21:36:12.697Z,2.30
2017-06-05T21:38:39.053Z,2.43
2017-06-05T21:41:05.523Z,2.60
2017-06-05T21:43:31.860Z,2.30
2017-06-05T21:45:58.256Z,2.10
2017-06-05T21:48:24.572Z,2.43
2017-06-05T21:50:51.032Z,2.33
2017-06-05T21:53:17.810Z,2.80
2017-06-05T21:55:44.129Z,2.70
2017-06-05T21:58:10.478Z,2.40
2017-06-05T22:00:36.881Z,2.10
2017-06-05T22:03:03.472Z,2.73
2017-06-05T22:05:29.950Z,2.27
2017-06-05T22:07:56.517Z,2.20
2017-06-05T22:10:23.202Z,2.20
2017-06-05T22:12:49.821Z,2.70
2017-06-05T22:15:17.153Z,2.13
2017-06-05T22:17:43.781Z,2.37
2017-06-05T22:20:11.702Z,2.83
2017-06-05T22:22:39.433Z,2.63
2017-06-05T22:25:06.001Z,2.10
2017-06-05T22:27:32.622Z,2.43
2017-06-05T22:29:59.188Z,2.57
2017-06-05T22:32:25.832Z,2.47
2017-06-05T22:34:52.491Z,2.33
2017-06-05T22:37:19.444Z,2.27
2017-06-05T22:39:46.853Z,2.47
2017-06-05T22:42:13.449Z,2.23
2017-06-05T22:44:39.913Z,2.70
2017-06-05T22:47:06.530Z,2.23
2017-06-05T22:49:33.314Z,2.70
2017-06-05T22:51:59.893Z,2.40
2017-06-05T22:54:26.484Z,2.60
2017-06-05T22:56:53.151Z,2.77
2017-06-05T22:59:20.140Z,2.63
2017-06-05T23:01:46.705Z,2.40
2017-06-05T23:04:13.268Z,3.10
2017-06-05T23:06:41.044Z,2.77
2017-06-05T23:09:10.685Z,3.23
2017-06-05T23:11:38.036Z,2.90
2017-06-05T23:14:05.407Z,2.80
2017-06-05T23:16:31.985Z,3.13
2017-06-05T23:18:58.563Z,3.20
2017-06-05T23:21:25.064Z,3.43
2017-06-05T23:23:52.386Z,2.60
2017-06-05T23:26:19.038Z,2.93
2017-06-05T23:28:45.632Z,2.90
2017-06-05T23:31:12.211Z,3.30
2017-06-05T23:33:38.792Z,3.70
2017-06-05T23:36:05.500Z,3.40
2017-06-05T23:38:32.848Z,3.43
2017-06-05T23:40:59.446Z,3.80
2017-06-05T23:43:26.028Z,3.80
2017-06-05T23:45:52.518Z,3.67
2017-06-05T23:48:19.884Z,3.87
2017-06-05T23:50:46.337Z,4.00
2017-06-05T23:53:12.950Z,3.70
2017-06-05T23:55:39.565Z,4.23
2017-06-05T23:58:06.012Z,4.60
